Ejby, Denmark
Current Conditions -  °F | °C
As of 3:20 PM on Thursday 29 Jan 2015 (Local Time) from EKRK Reporting Station
Rain Showers Rain Showers  
Wind Chill: 25°   Ceiling: 1700
Heat Index: 36°   Visibility: 6mi
Dew Point: 32°   Wind: 18mph
Humidity: 87%   Direction: 210°SSW
Pressure: 28.85"   Gusts: NA
Location:  55.49°N, 12.08°E
Report Text: EKRK 291420Z AUTO 21016KT 9999NDV -SHRA SCT013/// BKN017///02/M00 Q0977
Loading
Personal Weather Stations






























Interactive Weather Map New forecast layout! Learn more

10-Day Weather Forecast

Advertisements
Track Severe Weather on mobile